Time;durP1;ratioP1;P1;durP2;ratioP2;P2;SDS_P1;SDS_P2;PMS_P1;PMS_P2;Temp;Humidity;BMP_temperature;BMP_pressure;BME280_temperature;BME280_humidity;BME280_pressure;Samples;Min_cycle;Max_cycle;Signal;HPM_P1;HPM_P2
2023/01/10 00:00:35;;;;;;;6.75;2.42;;;;;;;16.67;64.20;101173.19;5054229;28;20101;-85
2023/01/10 00:03:04;;;;;;;5.22;2.20;;;;;;;16.69;62.99;101169.75;5037961;28;20040;-86
2023/01/10 00:05:30;;;;;;;5.03;2.40;;;;;;;16.69;63.62;101174.94;5054229;28;20430;-84
2023/01/10 00:07:57;;;;;;;6.35;2.50;;;;;;;16.67;63.56;101174.94;5038888;28;20037;-81
2023/01/10 00:10:23;;;;;;;7.00;2.03;;;;;;;16.64;64.44;101173.19;5053970;28;20510;-85
2023/01/10 00:15:36;;;;;;;6.15;2.20;;;;;;;16.67;63.35;101180.13;5054941;28;20072;-87
2023/01/10 00:18:02;;;;;;;6.55;2.50;;;;;;;16.65;63.69;101195.69;5037629;28;20024;-85
2023/01/10 00:20:27;;;;;;;7.07;2.28;;;;;;;16.66;63.10;101192.25;5055554;28;20037;-85
2023/01/10 00:22:53;;;;;;;6.60;2.28;;;;;;;16.64;64.34;101183.59;5037339;28;20060;-85
2023/01/10 00:25:20;;;;;;;5.45;2.60;;;;;;;16.63;64.43;101191.38;5056989;28;20082;-85
2023/01/10 00:27:52;;;;;;;7.18;2.20;;;;;;;16.63;64.57;101193.97;5058328;28;20124;-85
2023/01/10 00:30:18;;;;;;;8.43;2.50;;;;;;;16.63;63.45;101194.84;5056422;28;20033;-82
2023/01/10 00:32:44;;;;;;;5.65;2.30;;;;;;;16.64;63.35;101199.19;5054888;28;20025;-84
2023/01/10 00:35:11;;;;;;;6.57;2.33;;;;;;;16.64;64.81;101219.13;5053645;28;20071;-85
2023/01/10 00:37:38;;;;;;;4.68;2.33;;;;;;;16.65;63.63;101215.63;5054666;28;20060;-85
2023/01/10 00:40:07;;;;;;;8.38;2.45;;;;;;;16.65;62.70;101218.22;5053749;28;20013;-86
2023/01/10 00:45:18;;;;;;;7.10;2.28;;;;;;;16.63;63.21;101218.22;5039990;28;20040;-86
2023/01/10 00:47:44;;;;;;;7.53;2.40;;;;;;;16.64;62.81;101219.97;5037228;28;20025;-85
2023/01/10 00:50:10;;;;;;;4.53;1.85;;;;;;;16.65;62.73;101228.63;5039023;28;20040;-83
2023/01/10 00:52:36;;;;;;;6.35;2.13;;;;;;;16.63;64.05;101232.97;5056866;28;20025;-85
2023/01/10 00:55:01;;;;;;;7.95;2.45;;;;;;;16.63;64.20;101225.16;5056623;28;20360;-84
2023/01/10 00:57:26;;;;;;;6.35;2.50;;;;;;;16.61;64.38;101226.88;5039965;28;20075;-86
2023/01/10 00:59:52;;;;;;;6.68;2.35;;;;;;;16.61;63.80;101222.59;5056492;28;20024;-84
2023/01/10 01:02:17;;;;;;;6.97;2.03;;;;;;;16.62;63.03;101226.91;5023362;28;20052;-85
2023/01/10 01:04:43;;;;;;;6.47;2.10;;;;;;;16.63;62.78;101238.16;5039979;28;20360;-85
2023/01/10 01:07:08;;;;;;;4.57;2.08;;;;;;;16.63;62.52;101230.34;5023935;28;20025;-86
2023/01/10 01:10:25;;;;;;;4.85;1.92;;;;;;;16.63;62.59;101232.97;5074533;28;20025;-87
2023/01/10 01:12:19;;;;;;;5.50;2.10;;;;;;;16.59;64.50;101237.31;5059194;28;20097;-86
2023/01/10 01:14:44;;;;;;;7.47;2.35;;;;;;;16.61;63.20;101240.78;5039814;28;20530;-86
2023/01/10 01:17:09;;;;;;;4.97;2.20;;;;;;;16.59;63.60;101234.69;5023009;28;20390;-86
2023/01/10 01:19:35;;;;;;;4.63;1.90;;;;;;;16.59;63.71;101234.69;5039686;28;20028;-86
2023/01/10 01:22:00;;;;;;;6.57;2.47;;;;;;;16.61;62.48;101242.47;5039552;28;20032;-86
2023/01/10 01:24:25;;;;;;;4.65;2.13;;;;;;;16.60;63.67;101248.56;5039445;28;20032;-86
2023/01/10 01:26:51;;;;;;;4.75;1.92;;;;;;;16.61;63.04;101261.56;5023058;28;20513;-86
2023/01/10 01:29:16;;;;;;;4.13;1.90;;;;;;;16.62;62.56;101265.88;5023000;28;20036;-85
2023/01/10 01:31:41;;;;;;;4.47;1.90;;;;;;;16.60;63.38;101262.41;5040266;28;20479;-84
2023/01/10 01:34:07;;;;;;;4.70;1.83;;;;;;;16.61;62.76;101264.16;5039849;28;20032;-87
2023/01/10 01:36:32;;;;;;;7.00;2.10;;;;;;;16.60;62.88;101266.75;5039691;28;20394;-85
2023/01/10 01:38:58;;;;;;;5.80;2.10;;;;;;;16.59;62.91;101265.88;5022791;28;20470;-85
2023/01/10 01:44:12;;;;;;;;;;;;;;;16.61;62.11;101278.84;5045654;28;20397;-86
2023/01/10 01:46:39;;;;;;;5.28;2.10;;;;;;;16.60;62.82;101283.19;5073820;28;20003;-85
2023/01/10 01:49:12;;;;;;;7.10;2.30;;;;;;;16.58;63.86;101284.06;5039518;28;20028;-86
2023/01/10 01:51:38;;;;;;;5.80;2.08;;;;;;;16.59;63.54;101285.78;5074023;28;20048;-86
2023/01/10 01:54:10;;;;;;;4.22;1.83;;;;;;;16.59;63.26;101291.88;5022710;28;20532;-85
2023/01/10 01:56:45;;;;;;;5.65;2.30;;;;;;;16.59;62.11;101299.66;5055780;28;20029;-85
2023/01/10 01:59:22;;;;;;;5.25;2.00;;;;;;;16.59;62.86;101297.06;5055877;28;20020;-86
2023/01/10 02:01:51;;;;;;;5.15;2.10;;;;;;;16.61;61.90;101299.63;5073718;28;20032;-86
2023/01/10 02:04:51;;;;;;;4.85;2.05;;;;;;;16.59;63.49;101301.38;5055728;28;20039;-88
2023/01/10 02:07:17;;;;;;;4.43;2.17;;;;;;;16.57;63.13;101305.69;5052407;28;20043;-86
2023/01/10 02:09:45;;;;;;;6.30;2.10;;;;;;;16.59;62.39;101309.16;5022610;28;20029;-86
2023/01/10 02:12:12;;;;;;;5.38;1.95;;;;;;;16.60;63.25;101310.91;5073814;28;20017;-86
2023/01/10 02:14:40;;;;;;;5.80;2.25;;;;;;;16.59;62.45;101311.75;5058995;28;20025;-82
2023/01/10 02:17:09;;;;;;;4.88;2.10;;;;;;;16.58;62.92;101310.03;5060901;28;20032;-83
2023/01/10 02:19:49;;;;;;;5.90;2.00;;;;;;;16.57;62.62;101321.28;5074562;28;20556;-84
2023/01/10 02:22:46;;;;;;;5.28;1.92;;;;;;;16.58;62.66;101312.63;5071443;28;20028;-83
2023/01/10 02:25:33;;;;;;;7.28;2.42;;;;;;;16.55;62.97;101316.09;5074280;28;20012;-83
2023/01/10 02:28:19;;;;;;;5.05;1.70;;;;;;;16.58;62.93;101305.69;5076666;28;20103;-85
2023/01/10 02:31:02;;;;;;;7.88;2.10;;;;;;;16.57;63.25;101308.28;5005970;28;20037;-85
2023/01/10 02:33:49;;;;;;;5.50;2.03;;;;;;;16.56;63.04;101302.22;5055813;28;20021;-86
2023/01/10 02:36:33;;;;;;;5.00;1.98;;;;;;;16.56;62.79;101310.03;5056333;28;20115;-86
2023/01/10 02:39:10;;;;;;;4.20;1.80;;;;;;;16.58;62.36;101320.44;5077225;28;20172;-86
2023/01/10 02:41:47;;;;;;;4.93;1.98;;;;;;;16.56;63.04;101319.56;5059333;28;20025;-86
2023/01/10 02:44:27;;;;;;;3.60;1.70;;;;;;;16.55;62.81;101323.91;5059163;28;20020;-84
2023/01/10 02:46:55;;;;;;;6.57;2.10;;;;;;;16.57;62.08;101322.16;5059458;28;20115;-84
2023/01/10 02:49:21;;;;;;;7.45;2.08;;;;;;;16.55;62.63;101329.09;5077160;28;20024;-88
2023/01/10 02:51:46;;;;;;;5.43;2.22;;;;;;;16.55;63.40;101334.28;5076981;28;20557;-86
2023/01/10 02:54:22;;;;;;;6.88;2.10;;;;;;;16.54;63.34;101334.28;5025954;28;20024;-85
2023/01/10 02:57:14;;;;;;;6.65;1.95;;;;;;;16.55;62.13;101336.88;5059929;28;20088;-80
2023/01/10 03:00:12;;;;;;;5.85;2.10;;;;;;;16.54;63.12;101342.94;5076977;28;20021;-83
2023/01/10 03:03:06;;;;;;;6.22;2.08;;;;;;;16.55;62.29;101347.28;5058725;28;20025;-82
2023/01/10 03:05:40;;;;;;;4.50;1.80;;;;;;;16.53;63.20;101346.41;5022938;28;20063;-82
2023/01/10 03:08:34;;;;;;;5.03;1.83;;;;;;;16.55;62.21;101344.69;5058664;28;20390;-86
2023/01/10 03:11:08;;;;;;;4.57;2.10;;;;;;;16.53;63.40;101338.63;5058571;28;20078;-85
2023/01/10 03:13:38;;;;;;;5.47;1.80;;;;;;;16.54;63.32;101339.47;5058531;28;20478;-83
2023/01/10 03:16:09;;;;;;;6.03;2.08;;;;;;;16.53;62.92;101351.59;5076858;28;20060;-84
2023/01/10 03:19:03;;;;;;;5.30;2.00;;;;;;;16.56;62.00;101351.59;5059677;28;20036;-83
2023/01/10 03:21:30;;;;;;;5.30;1.90;;;;;;;16.54;63.41;101363.72;5055010;28;20440;-86
2023/01/10 03:24:01;;;;;;;4.75;1.70;;;;;;;16.55;62.65;101361.97;5058164;28;20167;-83
2023/01/10 03:26:35;;;;;;;6.18;1.92;;;;;;;16.55;62.62;101361.97;5058238;28;20020;-84
2023/01/10 03:29:05;;;;;;;6.30;2.05;;;;;;;16.55;62.30;101365.47;5076066;28;20020;-83
2023/01/10 03:31:48;;;;;;;5.22;2.00;;;;;;;16.55;62.48;101370.66;5057798;28;20538;-82
2023/01/10 03:34:13;;;;;;;8.93;1.95;;;;;;;16.55;62.34;101373.25;5058186;28;20033;-84
2023/01/10 03:36:46;;;;;;;6.47;2.03;;;;;;;16.55;62.24;101375.88;5041351;28;20047;-86
2023/01/10 03:39:20;;;;;;;5.78;2.00;;;;;;;16.55;62.14;101385.38;5058391;28;20028;-79
2023/01/10 03:42:15;;;;;;;5.38;2.17;;;;;;;16.55;62.99;101385.38;5076822;28;20095;-84
2023/01/10 03:45:03;;;;;;;5.10;2.00;;;;;;;16.53;63.26;101390.56;5055372;28;20123;-84
2023/01/10 03:47:48;;;;;;;5.05;1.80;;;;;;;16.53;62.09;101398.38;5076002;28;20056;-85
2023/01/10 03:50:19;;;;;;;5.15;2.00;;;;;;;16.53;62.04;101385.38;5057826;28;20025;-86
2023/01/10 03:52:44;;;;;;;7.20;2.17;;;;;;;16.52;62.40;101391.41;5058137;28;20082;-84
2023/01/10 03:55:11;;;;;;;4.90;1.88;;;;;;;16.54;62.89;101400.09;5041525;28;20028;-85
2023/01/10 03:57:41;;;;;;;4.43;1.65;;;;;;;16.54;61.53;101399.22;5057803;28;20551;-86
2023/01/10 04:00:07;;;;;;;5.00;1.70;;;;;;;16.53;62.41;101408.75;5057893;28;20028;-84
2023/01/10 04:02:32;;;;;;;4.78;1.92;;;;;;;16.52;62.01;101399.22;5041089;28;20032;-86
2023/01/10 04:04:58;;;;;;;7.68;2.10;;;;;;;16.53;62.93;101415.69;5024817;28;20098;-87
2023/01/10 04:07:24;;;;;;;6.60;2.17;;;;;;;16.51;62.75;101418.28;5041071;28;20028;-86
2023/01/10 04:09:49;;;;;;;4.63;1.80;;;;;;;16.51;62.92;101420.88;5041047;28;20463;-86
2023/01/10 04:12:15;;;;;;;5.47;2.03;;;;;;;16.51;62.96;101425.22;5041277;28;20039;-87
2023/01/10 04:14:40;;;;;;;5.60;1.80;;;;;;;16.52;62.16;101430.41;5057717;28;20024;-85
2023/01/10 04:17:06;;;;;;;5.45;2.13;;;;;;;16.51;62.27;101428.66;5040952;28;20078;-85
2023/01/10 04:19:32;;;;;;;6.70;2.20;;;;;;;16.51;62.20;101425.22;5075097;28;20107;-86
2023/01/10 04:21:57;;;;;;;5.70;2.15;;;;;;;16.51;61.87;101431.28;5024929;28;20032;-82
2023/01/10 04:24:22;;;;;;;6.55;1.75;;;;;;;16.51;62.03;101435.59;5076395;28;20028;-86
2023/01/10 04:26:48;;;;;;;4.53;1.70;;;;;;;16.51;62.09;101441.66;5057280;28;20084;-82
2023/01/10 04:29:14;;;;;;;7.07;2.10;;;;;;;16.49;62.36;101439.94;5024512;28;20085;-86
2023/01/10 04:31:40;;;;;;;7.35;2.15;;;;;;;16.50;62.30;101439.03;5057898;28;20036;-85
2023/01/10 04:34:06;;;;;;;8.00;2.10;;;;;;;16.49;62.50;101439.94;5057569;28;20521;-85
2023/01/10 04:36:32;;;;;;;4.40;2.10;;;;;;;16.49;62.94;101435.59;5041054;28;20107;-87
2023/01/10 04:38:57;;;;;;;6.88;1.92;;;;;;;16.50;62.80;101441.66;5040804;28;20028;-87
2023/01/10 04:41:23;;;;;;;5.65;1.90;;;;;;;16.48;62.35;101446.81;5057270;28;20537;-85
2023/01/10 04:43:48;;;;;;;5.05;1.70;;;;;;;16.48;62.24;101443.38;5056998;28;20099;-84
2023/01/10 04:46:14;;;;;;;4.75;1.90;;;;;;;16.49;62.60;101432.13;5056968;28;20081;-85
2023/01/10 04:48:39;;;;;;;5.55;2.08;;;;;;;16.49;62.46;101437.31;5057267;28;20054;-87
2023/01/10 04:51:05;;;;;;;6.13;2.08;;;;;;;16.49;61.67;101437.31;5023675;28;20080;-86
2023/01/10 04:53:30;;;;;;;6.70;2.17;;;;;;;16.48;62.65;101440.75;5023731;28;20474;-87
2023/01/10 04:56:07;;;;;;;5.15;1.92;;;;;;;16.48;62.64;101453.75;5040806;28;20169;-86
2023/01/10 04:58:36;;;;;;;6.32;2.08;;;;;;;16.49;61.77;101456.38;5056660;28;20028;-87
2023/01/10 05:01:14;;;;;;;5.50;1.85;;;;;;;16.47;62.39;101460.69;5056540;28;20162;-85
2023/01/10 05:03:40;;;;;;;6.72;2.20;;;;;;;16.48;62.35;101478.00;5074607;28;20024;-87
2023/01/10 05:06:06;;;;;;;3.35;1.90;;;;;;;16.51;60.94;101483.22;5078958;28;20035;-84
2023/01/10 05:08:32;;;;;;;4.88;1.92;;;;;;;16.54;60.88;101478.03;5056111;28;20036;-85
2023/01/10 05:10:58;;;;;;;4.90;1.77;;;;;;;16.57;60.58;101484.97;5093465;28;20025;-85
2023/01/10 05:13:24;;;;;;;6.05;1.75;;;;;;;16.59;60.68;101497.13;5076816;28;20029;-87
2023/01/10 05:15:53;;;;;;;5.07;1.83;;;;;;;16.61;60.73;101499.72;5065106;28;20032;-88
2023/01/10 05:18:18;;;;;;;5.72;2.10;;;;;;;16.60;60.93;101496.25;5040475;28;20450;-88
2023/01/10 05:20:43;;;;;;;5.68;1.98;;;;;;;16.63;60.53;101500.59;5023537;28;20056;-87
2023/01/10 05:23:09;;;;;;;4.82;2.10;;;;;;;16.62;61.01;101501.47;5039910;28;20082;-87
2023/01/10 05:25:34;;;;;;;5.88;2.33;;;;;;;16.61;61.00;101498.03;5023590;28;20119;-87
2023/01/10 05:28:00;;;;;;;5.85;1.80;;;;;;;16.62;60.58;101502.34;5023382;28;20085;-86
2023/01/10 05:30:25;;;;;;;7.28;2.22;;;;;;;16.64;60.91;101499.75;5023094;28;20115;-86
2023/01/10 05:32:50;;;;;;;6.63;2.00;;;;;;;16.65;60.58;101507.53;5039554;28;20024;-86
2023/01/10 05:35:16;;;;;;;6.10;2.20;;;;;;;16.67;60.91;101511.00;5056134;28;20036;-84
2023/01/10 05:37:41;;;;;;;4.20;1.70;;;;;;;16.66;61.85;101511.03;5039630;28;20028;-83
2023/01/10 05:40:08;;;;;;;6.40;2.25;;;;;;;16.67;60.70;101511.00;5056298;28;20083;-86
2023/01/10 05:42:33;;;;;;;5.75;1.70;;;;;;;16.68;60.42;101501.50;5074291;28;20434;-86
2023/01/10 05:44:58;;;;;;;4.88;1.75;;;;;;;16.66;61.72;101504.09;5023209;28;20056;-87
2023/01/10 05:47:24;;;;;;;4.72;1.95;;;;;;;16.68;60.96;101511.91;5024328;28;20051;-82
2023/01/10 05:49:49;;;;;;;4.22;1.70;;;;;;;16.70;60.84;101511.88;5057628;28;20039;-85
2023/01/10 05:52:15;;;;;;;5.00;1.70;;;;;;;16.72;60.23;101523.16;5038972;28;20060;-83
2023/01/10 05:54:40;;;;;;;5.82;1.83;;;;;;;16.71;60.62;101530.09;5056048;28;20428;-82
2023/01/10 05:57:05;;;;;;;5.22;1.67;;;;;;;16.72;60.87;101536.16;5039568;28;20035;-84
2023/01/10 05:59:31;;;;;;;3.55;1.50;;;;;;;16.71;60.67;101535.28;5022881;28;20036;-81
2023/01/10 06:01:56;;;;;;;5.97;2.20;;;;;;;16.70;62.15;101541.38;5074184;28;20150;-85
2023/01/10 06:04:22;;;;;;;5.63;2.10;;;;;;;16.72;61.02;101538.75;5055676;28;20033;-82
2023/01/10 06:06:47;;;;;;;38.95;9.73;;;;;;;16.79;61.43;101536.22;5040637;28;20035;-81
2023/01/10 06:09:12;;;;;;;45.97;13.07;;;;;;;16.83;61.03;101537.13;5022266;28;20024;-82
2023/01/10 06:11:38;;;;;;;45.47;12.48;;;;;;;16.88;61.83;101543.22;5023469;28;20056;-81
2023/01/10 06:14:04;;;;;;;29.48;10.52;;;;;;;16.96;60.69;101532.84;5059886;28;20078;-83
2023/01/10 06:16:29;;;;;;;29.33;11.90;;;;;;;16.91;61.55;101532.81;5060081;28;20075;-91
2023/01/10 06:18:55;;;;;;;39.78;12.20;;;;;;;16.93;61.73;101535.44;5060757;28;20031;-83
2023/01/10 06:21:20;;;;;;;31.17;11.75;;;;;;;16.92;61.92;101539.78;5059730;28;20540;-86
2023/01/10 06:23:46;;;;;;;33.10;11.77;;;;;;;16.92;61.59;101534.56;5078738;28;20433;-89
2023/01/10 06:26:11;;;;;;;28.48;9.88;;;;;;;16.92;61.32;101534.56;5043585;28;20132;-86
2023/01/10 06:28:36;;;;;;;25.77;9.45;;;;;;;16.95;60.38;101539.78;5043167;28;20033;-86
2023/01/10 06:31:02;;;;;;;27.60;9.23;;;;;;;16.96;60.86;101540.63;5048368;28;20036;-87
2023/01/10 06:33:27;;;;;;;25.77;9.02;;;;;;;16.91;61.95;101548.41;5043866;28;20033;-90
2023/01/10 06:35:52;;;;;;;24.17;8.85;;;;;;;16.93;61.38;101561.44;5026703;28;20031;-86
2023/01/10 06:38:18;;;;;;;22.10;8.05;;;;;;;16.95;62.05;101568.38;5042610;28;20502;-83
2023/01/10 06:40:43;;;;;;;22.85;7.95;;;;;;;16.96;60.52;101558.84;5059451;28;20033;-83
2023/01/10 06:43:09;;;;;;;18.52;8.02;;;;;;;16.97;61.01;101565.78;5059342;28;20031;-82
2023/01/10 06:45:34;;;;;;;20.80;8.20;;;;;;;16.98;61.21;101565.78;5059012;28;20028;-83
2023/01/10 06:48:00;;;;;;;20.60;8.13;;;;;;;16.95;61.38;101563.19;5042444;28;20029;-84
2023/01/10 06:50:25;;;;;;;19.83;7.20;;;;;;;16.98;60.75;101575.31;5025292;28;20563;-80
2023/01/10 06:52:59;;;;;;;19.20;7.18;;;;;;;16.98;60.73;101576.19;5058521;28;20028;-83
2023/01/10 06:55:24;;;;;;;;;;;;;;;16.97;60.93;101587.44;5059435;28;20017;-76
2023/01/10 06:58:01;;;;;;;16.08;6.60;;;;;;;16.92;60.83;101590.88;5058514;28;19995;-77
2023/01/10 07:00:28;;;;;;;17.88;6.60;;;;;;;16.91;60.85;101605.63;5058686;28;20093;-77
2023/01/10 07:02:57;;;;;;;19.13;6.93;;;;;;;16.90;61.06;101616.00;5058492;28;20029;-79
2023/01/10 07:05:22;;;;;;;16.30;6.82;;;;;;;16.86;60.98;101615.13;5058507;28;20043;-77
2023/01/10 07:07:48;;;;;;;15.85;6.70;;;;;;;16.86;60.57;101618.59;5041943;28;20538;-79
2023/01/10 07:10:13;;;;;;;15.23;6.88;;;;;;;16.83;60.89;101620.28;5041607;28;20028;-78
2023/01/10 07:12:38;;;;;;;15.63;6.40;;;;;;;16.81;61.47;101620.31;5059146;28;20028;-80
2023/01/10 07:15:05;;;;;;;20.48;6.95;;;;;;;16.84;60.94;101627.25;5058742;28;20478;-76
2023/01/10 07:17:30;;;;;;;16.58;6.60;;;;;;;16.81;61.89;101619.41;5058422;28;20120;-79
2023/01/10 07:19:56;;;;;;;16.40;6.45;;;;;;;16.78;62.23;101625.44;5058154;28;20111;-78
2023/01/10 07:22:21;;;;;;;15.70;6.35;;;;;;;16.77;61.36;101622.84;5041267;28;20039;-76
2023/01/10 07:24:47;;;;;;;17.00;6.00;;;;;;;16.75;61.86;101627.16;5057803;28;20031;-77
2023/01/10 07:27:12;;;;;;;13.88;5.82;;;;;;;16.75;61.60;101624.56;5075791;28;20029;-77
2023/01/10 07:29:37;;;;;;;17.85;6.63;;;;;;;16.73;61.49;101637.53;5024932;28;20501;-78
2023/01/10 07:32:04;;;;;;;21.92;6.75;;;;;;;16.72;62.33;101645.31;5025158;28;20036;-77
2023/01/10 07:34:30;;;;;;;13.30;5.60;;;;;;;16.73;62.26;101650.53;5076653;28;20045;-78
2023/01/10 07:36:55;;;;;;;14.63;5.68;;;;;;;16.72;62.15;101632.31;5025179;28;20024;-76
2023/01/10 07:39:20;;;;;;;13.82;6.00;;;;;;;16.72;61.42;101640.97;5027225;28;20029;-80
2023/01/10 07:41:47;;;;;;;14.68;5.50;;;;;;;16.72;61.21;101634.91;5025555;28;20486;-79
2023/01/10 07:44:13;;;;;;;13.00;5.90;;;;;;;16.70;62.07;101628.84;5058101;28;20017;-77
2023/01/10 07:46:38;;;;;;;14.38;5.88;;;;;;;16.68;61.36;101628.84;5041932;28;20028;-79
2023/01/10 07:49:04;;;;;;;16.05;6.13;;;;;;;16.69;61.68;101634.91;5025777;28;20498;-79
2023/01/10 07:51:30;;;;;;;14.30;5.47;;;;;;;16.67;61.95;101633.16;5042062;28;20037;-78
2023/01/10 07:53:55;;;;;;;13.95;5.55;;;;;;;16.68;61.69;101631.44;5058268;28;20074;-78
2023/01/10 07:56:21;;;;;;;13.00;5.78;;;;;;;16.67;61.66;101630.56;5044379;28;20032;-77
2023/01/10 07:58:46;;;;;;;12.55;5.80;;;;;;;16.66;61.37;101628.84;5041462;28;20119;-77
2023/01/10 08:01:12;;;;;;;15.20;5.80;;;;;;;16.66;61.37;101641.84;5075568;28;20025;-78
2023/01/10 08:03:37;;;;;;;12.98;5.65;;;;;;;16.65;61.42;101640.06;5042359;28;20037;-77
2023/01/10 08:06:05;;;;;;;12.93;5.43;;;;;;;16.66;61.07;101648.75;5024781;28;20017;-77
2023/01/10 08:08:32;;;;;;;13.50;5.18;;;;;;;16.64;61.66;101653.06;5057736;28;20061;-77
2023/01/10 08:11:01;;;;;;;13.20;5.22;;;;;;;16.64;62.03;101653.94;5040727;28;20038;-78
2023/01/10 08:13:28;;;;;;;9.48;4.90;;;;;;;16.64;61.56;101647.88;5026011;28;20032;-77
2023/01/10 08:15:53;;;;;;;13.70;5.20;;;;;;;16.64;62.15;101647.88;5057570;28;20046;-78
2023/01/10 08:18:20;;;;;;;10.82;4.78;;;;;;;16.64;61.81;101637.47;5040850;28;20115;-77
2023/01/10 08:20:48;;;;;;;12.80;5.78;;;;;;;16.63;61.91;101636.59;5056881;28;20427;-76
2023/01/10 08:23:13;;;;;;;12.05;5.13;;;;;;;16.62;61.74;101640.06;5058147;28;20024;-76
2023/01/10 08:25:39;;;;;;;13.65;5.05;;;;;;;16.62;61.77;101642.66;5024294;28;20024;-77
2023/01/10 08:28:04;;;;;;;10.65;5.13;;;;;;;16.62;61.37;101644.41;5040773;28;20127;-77
2023/01/10 08:30:30;;;;;;;12.90;5.05;;;;;;;16.62;61.24;101649.59;5041336;28;20036;-77
2023/01/10 08:32:55;;;;;;;13.27;5.20;;;;;;;16.61;62.32;101647.84;5040833;28;20036;-77
2023/01/10 08:35:21;;;;;;;11.88;4.93;;;;;;;16.61;61.82;101640.94;5023352;28;20031;-78
2023/01/10 08:37:46;;;;;;;10.10;4.97;;;;;;;16.65;61.40;101639.22;5057925;28;20037;-79
2023/01/10 08:40:12;;;;;;;11.98;4.28;;;;;;;16.64;62.14;101640.94;5040814;28;20489;-77
2023/01/10 08:42:37;;;;;;;12.30;4.53;;;;;;;16.65;61.41;101632.28;5040097;28;20039;-75
2023/01/10 08:45:03;;;;;;;11.73;4.82;;;;;;;16.65;61.12;101634.00;5039960;28;20111;-75
2023/01/10 08:47:29;;;;;;;14.05;4.78;;;;;;;16.66;60.88;101635.78;5023666;28;20039;-76
2023/01/10 08:49:54;;;;;;;12.38;4.50;;;;;;;16.64;61.73;101643.53;5023477;28;20025;-76
2023/01/10 08:52:19;;;;;;;9.73;4.47;;;;;;;16.65;61.11;101650.47;5023115;28;20056;-75
2023/01/10 08:54:45;;;;;;;10.13;4.55;;;;;;;16.64;61.14;101633.16;5056405;28;20020;-77
2023/01/10 08:57:10;;;;;;;10.07;4.50;;;;;;;16.65;60.96;101637.47;5023232;28;20161;-76
2023/01/10 08:59:36;;;;;;;10.48;4.40;;;;;;;16.64;60.92;101629.69;5023262;28;20115;-76
2023/01/10 09:02:03;;;;;;;11.02;4.72;;;;;;;16.63;61.76;101631.41;5056083;28;20051;-76
2023/01/10 09:04:28;;;;;;;11.18;4.20;;;;;;;16.64;61.09;101624.50;5039776;28;20374;-77
2023/01/10 09:06:54;;;;;;;8.63;3.70;;;;;;;16.64;61.28;101627.09;5023268;28;20127;-76
2023/01/10 09:09:20;;;;;;;9.15;4.13;;;;;;;16.64;60.85;101627.94;5039532;28;20025;-76
2023/01/10 09:11:45;;;;;;;11.50;4.25;;;;;;;16.62;61.67;101627.06;5023079;28;20132;-77
2023/01/10 09:14:10;;;;;;;8.40;4.10;;;;;;;16.63;61.08;101631.41;5023131;28;20387;-76
2023/01/10 09:16:36;;;;;;;10.50;4.03;;;;;;;16.63;60.79;101634.00;5055930;28;20471;-76
2023/01/10 09:19:02;;;;;;;9.50;4.50;;;;;;;16.63;60.99;101639.19;5057687;28;20040;-87
2023/01/10 09:21:27;;;;;;;9.80;3.90;;;;;;;16.62;61.05;101628.81;5042269;28;20521;-84
2023/01/10 09:23:54;;;;;;;8.68;4.00;;;;;;;16.61;61.58;101625.34;5041054;28;20032;-85
2023/01/10 09:26:20;;;;;;;14.02;4.10;;;;;;;16.63;60.60;101618.41;5041140;28;20432;-86
2023/01/10 09:28:45;;;;;;;8.27;3.55;;;;;;;16.62;60.78;101611.47;5041314;28;20028;-87
2023/01/10 09:31:11;;;;;;;9.77;3.95;;;;;;;16.62;61.02;101623.59;5040932;28;20029;-86
2023/01/10 09:33:37;;;;;;;10.02;4.10;;;;;;;16.61;60.70;101612.34;5075634;28;20116;-87
2023/01/10 09:36:02;;;;;;;7.88;3.88;;;;;;;16.61;61.12;101616.66;5042034;28;20127;-87
2023/01/10 09:38:28;;;;;;;8.48;3.75;;;;;;;16.60;61.03;101615.78;5041217;28;20442;-86
2023/01/10 09:41:44;;;;;;;10.13;4.28;;;;;;;16.63;60.83;101634.00;5040842;28;20025;-84
2023/01/10 09:44:48;;;;;;;7.68;3.13;;;;;;;16.62;61.08;101631.41;4958536;28;20043;-90
2023/01/10 09:47:30;;;;;;;9.38;3.83;;;;;;;16.62;60.61;101629.66;5040608;28;20032;-89
2023/01/10 09:50:11;;;;;;;7.82;3.70;;;;;;;16.62;60.53;101619.28;5057939;28;20133;-88
2023/01/10 09:53:08;;;;;;;9.07;3.92;;;;;;;16.62;60.38;101613.22;5075477;28;20052;-85
2023/01/10 09:55:37;;;;;;;9.25;3.85;;;;;;;16.62;61.10;101608.03;5048411;28;20036;-88
2023/01/10 09:58:10;;;;;;;8.65;3.72;;;;;;;16.61;61.13;101614.94;5057686;28;20439;-88
2023/01/10 10:00:48;;;;;;;8.23;3.42;;;;;;;16.63;60.86;101612.34;5040697;28;20466;-87
2023/01/10 10:03:22;;;;;;;7.78;3.35;;;;;;;16.62;60.62;101619.28;5063421;28;20039;-84
2023/01/10 10:05:48;;;;;;;13.70;3.30;;;;;;;16.63;60.36;101614.94;5076604;28;20020;-91
2023/01/10 10:08:17;;;;;;;9.13;3.50;;;;;;;16.61;60.56;101616.66;5041616;28;20039;-90
2023/01/10 10:10:57;;;;;;;7.10;3.33;;;;;;;16.59;60.81;101624.47;5062411;28;20020;-90
2023/01/10 10:13:34;;;;;;;8.80;3.63;;;;;;;16.60;60.69;101612.34;5069742;28;20046;-90
2023/01/10 10:16:23;;;;;;;8.80;3.20;;;;;;;16.57;61.09;101604.50;5059383;28;20546;-90
2023/01/10 10:19:22;;;;;;;9.13;3.53;;;;;;;16.57;60.74;101599.31;5043172;28;20037;-90
2023/01/10 10:21:53;;;;;;;7.57;3.53;;;;;;;16.58;60.66;101604.53;5058396;28;20090;-90
2023/01/10 10:24:31;;;;;;;6.93;3.17;;;;;;;16.56;60.60;101613.16;5059525;28;20028;-91
2023/01/10 10:27:35;;;;;;;8.68;3.22;;;;;;;16.55;60.53;101604.50;5061997;28;20020;-91
2023/01/10 10:30:23;;;;;;;8.07;3.20;;;;;;;16.55;61.07;101596.72;5076928;28;20017;-90
2023/01/10 10:33:19;;;;;;;8.73;3.53;;;;;;;16.53;61.04;101589.78;5093953;28;20037;-90
2023/01/10 10:35:52;;;;;;;11.70;3.45;;;;;;;16.54;60.62;101581.09;5072973;28;20017;-92
2023/01/10 10:38:23;;;;;;;5.87;2.90;;;;;;;16.55;60.68;101577.63;5079633;28;20478;-89
2023/01/10 10:40:50;;;;;;;7.10;3.08;;;;;;;16.54;60.76;101568.97;5077953;28;20400;-90
2023/01/10 10:43:18;;;;;;;8.13;2.92;;;;;;;16.55;60.44;101575.94;5043008;28;20075;-90
2023/01/10 10:45:50;;;;;;;10.07;3.35;;;;;;;16.53;60.77;101562.06;5083589;28;20032;-87
2023/01/10 10:48:24;;;;;;;8.48;3.30;;;;;;;16.55;60.31;101564.63;5060059;28;20059;-91
2023/01/10 10:50:58;;;;;;;7.40;3.17;;;;;;;16.54;60.81;101562.91;5054899;28;20124;-91
2023/01/10 10:53:23;;;;;;;7.38;2.92;;;;;;;16.53;60.54;101564.66;5054299;28;20021;-91
2023/01/10 10:55:49;;;;;;;7.30;3.13;;;;;;;16.53;60.54;101561.19;5054638;28;20031;-91
2023/01/10 10:58:16;;;;;;;8.70;3.40;;;;;;;16.54;60.13;101539.53;5056016;28;20033;-90
2023/01/10 11:00:41;;;;;;;8.18;3.25;;;;;;;16.53;60.78;101548.19;5041880;28;20025;-91
2023/01/10 11:03:33;;;;;;;7.47;2.95;;;;;;;16.53;60.54;101541.28;5024274;28;20083;-91
2023/01/10 11:05:59;;;;;;;7.75;2.72;;;;;;;16.53;60.52;101541.28;5058578;28;20025;-89
2023/01/10 11:08:27;;;;;;;6.22;2.67;;;;;;;16.52;60.56;101547.31;5057179;28;20090;-91
2023/01/10 11:10:55;;;;;;;9.25;3.30;;;;;;;16.53;60.35;101543.88;5057180;28;20025;-91
2023/01/10 11:13:49;;;;;;;7.40;3.40;;;;;;;16.53;60.63;101545.59;5057623;28;20017;-91
2023/01/10 11:16:28;;;;;;;9.32;2.75;;;;;;;16.53;60.55;101541.28;5058444;28;20025;-90
2023/01/10 11:19:24;;;;;;;6.15;2.53;;;;;;;16.53;60.27;101532.63;5057358;28;20025;-90
2023/01/10 11:22:01;;;;;;;7.68;3.15;;;;;;;16.51;61.05;101523.94;5058026;28;20029;-92
2023/01/10 11:24:37;;;;;;;8.60;2.92;;;;;;;16.51;60.83;101524.81;5059278;28;20021;-93
2023/01/10 11:27:30;;;;;;;4.97;2.45;;;;;;;16.52;60.67;101523.06;5060181;28;20055;-92
2023/01/10 11:30:07;;;;;;;6.88;2.90;;;;;;;16.52;60.17;101513.53;5065594;28;20041;-91
2023/01/10 11:32:39;;;;;;;6.95;2.35;;;;;;;16.53;60.36;101511.81;5058878;28;20447;-92
2023/01/10 11:35:54;;;;;;;6.47;2.90;;;;;;;16.52;60.27;101516.13;5059791;28;20025;-92
2023/01/10 11:38:21;;;;;;;8.45;3.22;;;;;;;16.51;60.35;101508.34;5018245;28;20117;-91
2023/01/10 11:40:54;;;;;;;7.38;2.97;;;;;;;16.51;60.31;101501.41;5051393;28;20029;-91
2023/01/10 11:43:24;;;;;;;7.68;2.90;;;;;;;16.51;60.49;101501.41;5059039;28;20025;-91
2023/01/10 11:45:55;;;;;;;9.10;2.80;;;;;;;16.50;60.42;101499.66;5057889;28;20028;-92